• Join FlightAware (Why Join?)
  • Login
  • US Flag 
11:36AM EDT


 

Airport Tracker/Info


-or-


 

Live Flight TrackerFlight Track Log ✈ N8163Y ✈ 03-Aug-2011 ✈ KANE - KINL

Flight Track Log - Related Links

Times and Time Zones

All times are in EDT time to prevent confusion due to time zone crossing. See the N8163Y flight status page for this flight to view local times or setup timezone preferences in your user account.

Time Position Orientation Groundspeed Altitude Reporting Facility
EDT Latitude Longitude Course Direction KTS MPH feet Rate Location/Type
07:16PM 45.1656 -93.2186 337° Northwest 158 182 1,400  Level FAA TRACON SMA TRACON (SMA)
07:16PM 45.1725 -93.2228 338° Northwest 92 106 1,600 720 Climbing FAA TRACON SMA TRACON (SMA)
07:16PM 45.1794 -93.2267 341° North 87 100 1,900 420 Climbing FAA TRACON SMA TRACON (SMA)
07:17PM 45.1872 -93.2306 340° North 92 106 1,900 300 Level FAA TRACON SMA TRACON (SMA)
07:17PM 45.1964 -93.2353 336° Northwest 95 109 2,100 300 Climbing FAA TRACON SMA TRACON (SMA)
07:17PM 45.2039 -93.2400 327° Northwest 98 113 2,100 420 Level FAA TRACON SMA TRACON (SMA)
07:18PM 45.2125 -93.2481 303° West 101 116 2,400 720 Climbing FAA TRACON SMA TRACON (SMA)
07:18PM 45.2164 -93.2567 295° West 95 109 2,600 720 Climbing FAA TRACON SMA TRACON (SMA)
07:18PM 45.2200 -93.2678 307° West 96 110 2,900 420 Climbing FAA TRACON SMA TRACON (SMA)
07:19PM 45.2244 -93.2761 298° West 96 110 2,900 120 Level FAA TRACON SMA TRACON (SMA)
07:19PM 45.2292 -93.2889 298° West 94 108 3,000 300 Climbing FAA TRACON SMA TRACON (SMA)
07:19PM 45.2328 -93.2983 301° West 94 108 3,100 420 Climbing FAA TRACON SMA TRACON (SMA)
07:20PM 45.2369 -93.3083 305° West 92 106 3,300 420 Climbing FAA TRACON SMA TRACON (SMA)
07:20PM 45.2431 -93.3208 353° North 100 115 3,400 420 Climbing FAA TRACON SMA TRACON (SMA)
07:20PM 45.2514 -93.3222 353° North 102 117 3,600 720 Climbing FAA TRACON SMA TRACON (SMA)
07:21PM 45.2614 -93.3239 359° North 97 112 3,900 420 Climbing FAA TRACON SMA TRACON (SMA)
07:21PM 45.2700 -93.3242 North 97 112 3,900 120 Level FAA TRACON SMA TRACON (SMA)
07:21PM 45.2786 -93.3231 359° North 100 115 4,000 300 Climbing FAA TRACON SMA TRACON (SMA)
07:22PM 45.2875 -93.3233 360° North 103 119 4,100 120 Climbing FAA TRACON SMA TRACON (SMA)
07:22PM 45.2992 -93.3233 358° North 110 127 4,100  Level FAA TRACON SMA TRACON (SMA)
07:22PM 45.3086 -93.3239 North 111 128 4,100  Level FAA TRACON SMA TRACON (SMA)
07:23PM 45.3186 -93.3233 355° North 114 131 4,100  Level FAA TRACON SMA TRACON (SMA)
07:23PM 45.3306 -93.3247 North 113 130 4,100  Level FAA TRACON SMA TRACON (SMA)
07:23PM 45.3403 -93.3239 359° North 114 131 4,100  Level FAA TRACON SMA TRACON (SMA)
07:24PM 45.3528 -93.3242 360° North 116 133 4,100  Level FAA TRACON SMA TRACON (SMA)
07:24PM 45.3622 -93.3242 360° North 114 131 4,100  Level FAA TRACON SMA TRACON (SMA)
07:24PM 45.3717 -93.3242 357° North 111 128 4,100 300 Level FAA TRACON SMA TRACON (SMA)
07:25PM 45.3919 -93.3256 356° North 106 122 4,400 480 Climbing FAA TRACON SMA TRACON (SMA)
07:25PM 45.4011 -93.3264 357° North 106 122 4,600 240 Climbing FAA TRACON SMA TRACON (SMA)
07:26PM 45.4119 -93.3272 353° North 102 117 4,600  Level FAA TRACON SMA TRACON (SMA)
07:26PM 45.4203 -93.3286 357° North 100 115 4,600 420 Level FAA TRACON SMA TRACON (SMA)
07:26PM 45.4289 -93.3292 North 100 115 4,900 720 Climbing FAA TRACON SMA TRACON (SMA)
07:27PM 45.4392 -93.3275 359° North 96 110 5,100 240 Climbing FAA TRACON SMA TRACON (SMA)
07:27PM 45.4472 -93.3278 North 95 109 5,100  Level FAA TRACON SMA TRACON (SMA)
07:27PM 45.4553 -93.3275 North 93 107 5,100 300 Level FAA TRACON SMA TRACON (SMA)
07:28PM 45.4633 -93.3267 353° North 95 109 5,300 420 Climbing FAA TRACON SMA TRACON (SMA)
07:28PM 45.4733 -93.3283 North 92 106 5,400 300 Climbing FAA TRACON SMA TRACON (SMA)
07:28PM 45.4814 -93.3272 North 95 109 5,500 300 Climbing FAA TRACON SMA TRACON (SMA)
07:29PM 45.4894 -93.3258 359° North 95 109 5,600 120 Climbing FAA TRACON SMA TRACON (SMA)
07:29PM 45.4994 -93.3261 North 95 109 5,600 420 Level FAA TRACON SMA TRACON (SMA)
07:29PM 45.5075 -93.3258 North 94 108 5,900 420 Climbing FAA TRACON SMA TRACON (SMA)
07:30PM 45.5178 -93.3247 North 96 110 5,900  Level FAA TRACON SMA TRACON (SMA)
07:30PM 45.5258 -93.3231 359° North 96 110 5,900  Level FAA TRACON SMA TRACON (SMA)
07:30PM 45.5347 -93.3233 355° North 99 114 5,900  Level FAA TRACON SMA TRACON (SMA)
07:31PM 45.5458 -93.3247 353° North 105 121 5,900  Level FAA TRACON SMA TRACON (SMA)
07:31PM 45.5542 -93.3261 355° North 102 117 5,900  Level FAA TRACON SMA TRACON (SMA)
07:31PM 45.5631 -93.3272 360° North 103 119 5,900  Level FAA TRACON SMA TRACON (SMA)
07:32PM 45.5744 -93.3272 North 103 119 5,900  Level FAA TRACON SMA TRACON (SMA)
07:32PM 45.5831 -93.3269 354° North 102 117 5,900  Level FAA TRACON SMA TRACON (SMA)
07:32PM 45.5919 -93.3283 355° North 102 117 5,900  Level FAA TRACON SMA TRACON (SMA)
07:33PM 45.6028 -93.3297 360° North 102 117 5,900  Level FAA TRACON SMA TRACON (SMA)
07:33PM 45.6114 -93.3297 North 101 116 5,900 120 Level FAA TRACON SMA TRACON (SMA)
07:33PM 45.6203 -93.3289 360° North 103 119 6,000 120 Climbing FAA TRACON SMA TRACON (SMA)
07:34PM 45.6314 -93.3289 347° North 103 119 6,000  Level FAA TRACON SMA TRACON (SMA)
07:34PM 45.6400 -93.3317 North 103 119 6,000  Level FAA TRACON SMA TRACON (SMA)
07:34PM 45.6489 -93.3311 346° North 103 119 6,000  Level FAA TRACON SMA TRACON (SMA)
07:35PM 45.6575 -93.3342 North 102 117 6,000  Level FAA TRACON SMA TRACON (SMA)
07:35PM 45.6686 -93.3319 346° North 104 120 6,000  Level FAA TRACON SMA TRACON (SMA)
07:35PM 45.6772 -93.3350 360° North 102 117 6,000  Level FAA TRACON SMA TRACON (SMA)
07:36PM 45.6881 -93.3350 356° North 102 117 6,000  Level FAA TRACON SMA TRACON (SMA)
07:36PM 45.6967 -93.3358 North 102 117 6,000  Level FAA TRACON SMA TRACON (SMA)
07:36PM 45.7053 -93.3353 North 100 115 6,000  Level FAA TRACON SMA TRACON (SMA)
07:37PM 45.7161 -93.3347 355° North 101 116 6,000 -180 Level FAA TRACON SMA TRACON (SMA)
07:37PM 45.7247 -93.3358 North 101 116 5,900  Descending FAA TRACON SMA TRACON (SMA)
07:37PM 45.7339 -93.3350 North 103 119 6,000  Climbing FAA TRACON SMA TRACON (SMA)
07:38PM 45.7425 -93.3344 355° North 101 116 5,900 -180 Descending FAA TRACON SMA TRACON (SMA)
07:38PM 45.7533 -93.3358 North 102 117 5,900  Level FAA TRACON SMA TRACON (SMA)
07:38PM 45.7622 -93.3350 356° North 101 116 5,900  Level FAA TRACON SMA TRACON (SMA)
07:39PM 45.7708 -93.3358 North 103 119 5,900  Level FAA TRACON SMA TRACON (SMA)
07:39PM 45.7817 -93.3353 North 101 116 5,900  Level FAA TRACON SMA TRACON (SMA)
07:39PM 45.7903 -93.3342 North 102 117 5,900  Level FAA TRACON SMA TRACON (SMA)
07:40PM 45.7989 -93.3336 11° North 102 117 5,900  Level FAA TRACON SMA TRACON (SMA)
07:40PM 45.8100 -93.3306 356° North 104 120 5,900 120 Level FAA TRACON SMA TRACON (SMA)
07:40PM 45.8183 -93.3314 347° North 104 120 6,000 120 Climbing FAA TRACON SMA TRACON (SMA)
07:41PM 45.8283 -93.3347 North 99 114 6,000  Level FAA TRACON SMA TRACON (SMA)
07:41PM 45.8369 -93.3333 355° North 98 113 6,000 -180 Level FAA TRACON SMA TRACON (SMA)
07:41PM 45.8456 -93.3344 North 101 116 5,900 -180 Descending FAA TRACON SMA TRACON (SMA)
07:42PM 45.8544 -93.3336 North 103 119 5,900  Level FAA TRACON SMA TRACON (SMA)
07:42PM 45.8658 -93.3325 346° North 104 120 5,900  Level FAA TRACON SMA TRACON (SMA)
07:42PM 45.8744 -93.3356 356° North 105 121 5,900  Level FAA TRACON SMA TRACON (SMA)
07:43PM 45.8856 -93.3367 303° West 104 120 5,900  Level FAA TRACON SMA TRACON (SMA)
07:43PM 45.8914 -93.3494 360° North 102 117 5,900  Level Minneapolis Center
07:44PM 45.9206 -93.3494 North 102 117 5,900  Level Minneapolis Center
07:45PM 45.9475 -93.3464 360° North 102 117 6,000  Climbing Minneapolis Center
07:46PM 45.9767 -93.3464 356° North 102 117 6,000  Level Minneapolis Center
07:47PM 46.0058 -93.3494 355° North 102 117 6,000  Level Minneapolis Center
07:48PM 46.0289 -93.3522 North 102 117 6,000  Level Minneapolis Center
07:49PM 46.0581 -93.3464 360° North 102 117 6,000  Level Minneapolis Center
07:50PM 46.0872 -93.3461 356° North 102 117 6,000  Level Minneapolis Center
07:51PM 46.1164 -93.3492 North 102 117 6,000  Level Minneapolis Center
07:52PM 46.1456 -93.3461 356° North 102 117 6,000 -60 Level Minneapolis Center
07:53PM 46.1747 -93.3492 360° North 102 117 5,900 -60 Descending Minneapolis Center
07:54PM 46.2039 -93.3492 360° North 102 117 5,900  Level Minneapolis Center
07:55PM 46.2350 -93.3489 360° North 102 117 5,900  Level Minneapolis Center
07:56PM 46.2642 -93.3489 360° North 102 117 5,900  Level Minneapolis Center
07:57PM 46.2933 -93.3489 356° North 102 117 5,900  Level Minneapolis Center
07:58PM 46.3225 -93.3519 360° North 102 117 5,900  Level Minneapolis Center
07:59PM 46.3517 -93.3517 360° North 102 117 5,900  Level Minneapolis Center
08:00PM 46.3808 -93.3517 360° North 102 117 6,000  Climbing Minneapolis Center
08:01PM 46.4081 -93.3517 360° North 102 117 5,900 -60 Descending Minneapolis Center
08:02PM 46.4392 -93.3517 North 102 117 5,900  Level Minneapolis Center
08:03PM 46.4706 -93.3486 360° North 102 117 5,900  Level Minneapolis Center
08:04PM 46.4997 -93.3486 352° North 102 117 5,900  Level Minneapolis Center
08:05PM 46.5286 -93.3547 360° North 102 117 5,900  Level Minneapolis Center
08:06PM 46.5581 -93.3544 356° North 102 117 5,900  Level Minneapolis Center
08:07PM 46.5869 -93.3575 North 102 117 5,900  Level Minneapolis Center
08:08PM 46.6161 -93.3544 360° North 102 117 5,900  Level Minneapolis Center
08:09PM 46.6475 -93.3544 356° North 102 117 6,000  Climbing Minneapolis Center
08:10PM 46.6767 -93.3575 North 102 117 6,000  Level Minneapolis Center
08:11PM 46.7058 -93.3544 356° North 102 117 6,000  Level Minneapolis Center
08:12PM 46.7350 -93.3572 356° North 102 117 6,000  Level Minneapolis Center
08:13PM 46.7661 -93.3603 360° North 102 117 6,000  Level Minneapolis Center
08:14PM 46.7953 -93.3603 356° North 102 117 6,000  Level Minneapolis Center
08:15PM 46.8267 -93.3633 360° North 102 117 6,000  Level Minneapolis Center
08:16PM 46.8558 -93.3631 360° North 102 117 6,000  Level Minneapolis Center
08:17PM 46.8850 -93.3631 356° North 102 117 6,000  Level Minneapolis Center
08:18PM 46.9161 -93.3661 360° North 102 117 6,000  Level Minneapolis Center
08:19PM 46.9475 -93.3661 360° North 102 117 6,000 -60 Level Minneapolis Center
08:20PM 46.9767 -93.3661 360° North 102 117 5,900  Descending Minneapolis Center
08:21PM 47.0078 -93.3661 North 102 117 6,000  Climbing Minneapolis Center
08:22PM 47.0389 -93.3631 356° North 102 117 6,000  Level Minneapolis Center
08:23PM 47.0681 -93.3658 360° North 102 117 6,000  Level Minneapolis Center
08:24PM 47.0994 -93.3658 356° North 102 117 6,000 -60 Level Minneapolis Center
08:25PM 47.1264 -93.3689 360° North 102 117 5,900  Descending Minneapolis Center
08:26PM 47.1578 -93.3689 356° North 102 117 6,000  Climbing Minneapolis Center
08:27PM 47.1889 -93.3719 360° North 102 117 6,000  Level Minneapolis Center
08:28PM 47.2203 -93.3719 356° North 102 117 6,000  Level Minneapolis Center
08:29PM 47.2494 -93.3750 360° North 102 117 6,000  Level Minneapolis Center
08:30PM 47.2806 -93.3750 360° North 102 117 6,000 -60 Level Minneapolis Center
08:31PM 47.3119 -93.3747 360° North 102 117 5,900 -60 Descending Minneapolis Center
08:32PM 47.3431 -93.3747 360° North 102 117 5,900  Level Minneapolis Center
08:33PM 47.3722 -93.3747 356° North 102 117 5,900  Level Minneapolis Center
08:34PM 47.4014 -93.3778 360° North 102 117 6,000  Climbing Minneapolis Center
08:35PM 47.4306 -93.3778 360° North 102 117 6,000  Level Minneapolis Center
08:36PM 47.4617 -93.3778 360° North 102 117 6,000  Level Minneapolis Center
08:37PM 47.4908 -93.3778 360° North 102 117 6,000  Level Minneapolis Center
08:38PM 47.5222 -93.3778 356° North 102 117 6,000  Level Minneapolis Center
08:39PM 47.5514 -93.3808 360° North 102 117 6,000  Level Minneapolis Center
08:40PM 47.5806 -93.3806 360° North 102 117 6,100  Climbing Minneapolis Center
08:41PM 47.6117 -93.3806 North 102 117 6,100  Level Minneapolis Center
08:42PM 47.6408 -93.3775 360° North 102 117 6,100 -60 Level Minneapolis Center
08:43PM 47.6719 -93.3775 360° North 102 117 6,000  Descending Minneapolis Center
08:44PM 47.7011 -93.3775 356° North 102 117 6,100  Climbing Minneapolis Center
08:45PM 47.7303 -93.3806 356° North 102 117 6,100  Level Minneapolis Center
08:46PM 47.7617 -93.3836 360° North 102 117 6,100  Level Minneapolis Center
08:47PM 47.7908 -93.3836 356° North 102 117 6,100  Level Minneapolis Center
08:48PM 47.8200 -93.3867 360° North 102 117 6,100  Level Minneapolis Center
08:49PM 47.8492 -93.3867 356° North 102 117 6,100  Level Minneapolis Center
08:50PM 47.8803 -93.3897 360° North 102 117 6,100  Level Minneapolis Center
08:51PM 47.9094 -93.3897 360° North 102 117 6,100  Level Minneapolis Center
08:52PM 47.9386 -93.3894 360° North 102 117 6,100  Level Minneapolis Center
08:53PM 47.9656 -93.3894 356° North 102 117 6,100  Level Minneapolis Center
08:54PM 47.9947 -93.3925 360° North 102 117 6,100 -60 Level Minneapolis Center
08:55PM 48.0261 -93.3925 356° North 102 117 6,000 -60 Descending Minneapolis Center
08:56PM 48.0553 -93.3956 360° North 102 117 6,000 -60 Level Minneapolis Center
08:57PM 48.0844 -93.3956 360° North 102 117 5,900 -60 Descending Minneapolis Center
08:58PM 48.1156 -93.3956 360° North 102 117 5,900  Level Minneapolis Center
08:59PM 48.1425 -93.3956 360° North 102 117 6,000 -240 Climbing Minneapolis Center
09:00PM 48.1739 -93.3956 356° North 102 117 5,500 -360 Descending Minneapolis Center
09:01PM 48.2072 -93.3986 360° North 107 123 5,300 -300 Descending Minneapolis Center
09:02PM 48.2406 -93.3986 360° North 107 123 5,000 -420 Descending Minneapolis Center
09:03PM 48.2758 -93.3986 357° North 112 129 4,500 -300 Descending Minneapolis Center
09:04PM 48.3092 -93.4017 357° North 117 135 4,400 -300 Descending Minneapolis Center
09:05PM 48.3444 -93.4047 North 122 140 4,000 -240 Descending Minneapolis Center
09:06PM 48.3778 -93.4017 360° North 122 140 4,000  Level Minneapolis Center
09:07PM 48.4111 -93.4017 360° North 122 140 4,000  Level Minneapolis Center